world map with SCY marked

SCY - Airport

This information may not be accurate or current and is not valid for navigation or flight planning. No warranty of fitness for any purpose is made or implied.

flag of Galápagos Islandsflag of Ecuador

Donate via PayPal

Additional information is available on the NEW Great Circle Mapper

Location
City:  San Cristóbal, San Cristóbal Island, Galápagos Islands, Ecuador
Near (Alt.):Puerto Baquerizo Moreno
Name:San Cristóbal
ICAO / IATA:SEST / SCY

Details
Type:Airport (Aerodrome, Airfield)
Latitude:0°54'37"S (-0.910205)
Longitude:89°37'03"W (-89.617449)
Datum:WGS 1984
Elevation:62 ft (19 m)
Runways:1
Longest:6214 × 66 ft (1894 × 20 m)

Time
Timezone:UTC+28:08 (DST+30:08)
Local Time:

Weather
METAR:SEST  041400Z 34002KT CAVOK 25/23 Q1008 RMK A2977

Related Locations
Nearby:
Farthest:WITG: 12026 mi / 19354 km
Sinabang, AC, ID

Find:

   beyond  
but within

Other Information
Maps:
Sources:

  


 


Great Circle Mapper   Great Circle Mapper
Great Circle Mapper FAQ   Great Circle Mapper FAQ
  Karl's Home Page
KLS²   KLS² Home
   GC on Facebook
Airlines of the World   Airlines of the World
Donate via PayPal


Copyright © 2004-2019, Karl L. Swartz. All rights reserved.
All trademarks mentioned herein belong to their respective owners.

Please see credits for attribution and copyright information.

Karl Swartz <karl@kls2.com>
  Powered by FreeBSD
Valid HTML 4.01!
Labeled with ICRA
hCard Microformat
Geo Microformat